sensor_id;sensor_type;location;lat;lon;timestamp;P1;durP1;ratioP1;P2;durP2;ratioP2
11777;SDS011;5946;51.770;8.548;2022-09-27T00:01:09;11.27;;;6.57;;
11777;SDS011;5946;51.770;8.548;2022-09-27T00:03:35;9.83;;;7.23;;
11777;SDS011;5946;51.770;8.548;2022-09-27T00:08:29;14.17;;;8.60;;
11777;SDS011;5946;51.770;8.548;2022-09-27T00:11:05;13.87;;;8.50;;
11777;SDS011;5946;51.770;8.548;2022-09-27T00:13:32;15.03;;;9.97;;
11777;SDS011;5946;51.770;8.548;2022-09-27T00:15:58;18.30;;;10.07;;
11777;SDS011;5946;51.770;8.548;2022-09-27T00:18:25;17.10;;;9.97;;
11777;SDS011;5946;51.770;8.548;2022-09-27T00:20:51;22.07;;;11.27;;
11777;SDS011;5946;51.770;8.548;2022-09-27T00:23:17;16.93;;;11.40;;
11777;SDS011;5946;51.770;8.548;2022-09-27T00:25:53;15.20;;;10.30;;
11777;SDS011;5946;51.770;8.548;2022-09-27T00:28:19;18.93;;;10.90;;
11777;SDS011;5946;51.770;8.548;2022-09-27T00:30:44;16.17;;;10.13;;
11777;SDS011;5946;51.770;8.548;2022-09-27T00:33:10;15.80;;;10.37;;
11777;SDS011;5946;51.770;8.548;2022-09-27T00:35:36;17.87;;;10.90;;
11777;SDS011;5946;51.770;8.548;2022-09-27T00:38:02;22.47;;;11.30;;
11777;SDS011;5946;51.770;8.548;2022-09-27T00:40:28;18.60;;;11.20;;
11777;SDS011;5946;51.770;8.548;2022-09-27T00:42:54;22.73;;;11.70;;
11777;SDS011;5946;51.770;8.548;2022-09-27T00:45:20;19.20;;;11.63;;
11777;SDS011;5946;51.770;8.548;2022-09-27T00:48:00;21.50;;;11.07;;
11777;SDS011;5946;51.770;8.548;2022-09-27T00:50:29;19.57;;;11.53;;
11777;SDS011;5946;51.770;8.548;2022-09-27T00:53:38;21.40;;;12.13;;
11777;SDS011;5946;51.770;8.548;2022-09-27T00:55:47;21.33;;;11.93;;
11777;SDS011;5946;51.770;8.548;2022-09-27T00:58:16;22.83;;;12.57;;
11777;SDS011;5946;51.770;8.548;2022-09-27T01:00:44;21.73;;;11.50;;
11777;SDS011;5946;51.770;8.548;2022-09-27T01:03:11;22.33;;;11.60;;
11777;SDS011;5946;51.770;8.548;2022-09-27T01:05:38;24.00;;;11.73;;
11777;SDS011;5946;51.770;8.548;2022-09-27T01:08:05;20.23;;;11.43;;
11777;SDS011;5946;51.770;8.548;2022-09-27T01:10:33;17.87;;;11.37;;
11777;SDS011;5946;51.770;8.548;2022-09-27T01:13:19;15.77;;;11.47;;
11777;SDS011;5946;51.770;8.548;2022-09-27T01:15:58;23.10;;;11.37;;
11777;SDS011;5946;51.770;8.548;2022-09-27T01:18:30;24.13;;;11.20;;
11777;SDS011;5946;51.770;8.548;2022-09-27T01:26:10;21.70;;;12.17;;
11777;SDS011;5946;51.770;8.548;2022-09-27T01:41:09;19.50;;;12.03;;
11777;SDS011;5946;51.770;8.548;2022-09-27T01:43:39;19.03;;;11.83;;
11777;SDS011;5946;51.770;8.548;2022-09-27T01:46:07;21.43;;;11.83;;
11777;SDS011;5946;51.770;8.548;2022-09-27T01:48:42;19.77;;;11.50;;
11777;SDS011;5946;51.770;8.548;2022-09-27T01:51:10;20.70;;;10.63;;
11777;SDS011;5946;51.770;8.548;2022-09-27T01:53:38;15.47;;;9.93;;
11777;SDS011;5946;51.770;8.548;2022-09-27T01:56:06;18.83;;;9.87;;
11777;SDS011;5946;51.770;8.548;2022-09-27T01:58:36;15.33;;;9.37;;
11777;SDS011;5946;51.770;8.548;2022-09-27T02:01:05;16.60;;;9.43;;
11777;SDS011;5946;51.770;8.548;2022-09-27T02:03:34;14.67;;;8.57;;
11777;SDS011;5946;51.770;8.548;2022-09-27T02:06:01;15.50;;;7.13;;
11777;SDS011;5946;51.770;8.548;2022-09-27T02:08:45;14.93;;;7.47;;
11777;SDS011;5946;51.770;8.548;2022-09-27T02:11:13;17.20;;;7.60;;
11777;SDS011;5946;51.770;8.548;2022-09-27T02:13:44;17.80;;;8.03;;
11777;SDS011;5946;51.770;8.548;2022-09-27T02:18:42;17.90;;;7.70;;
11777;SDS011;5946;51.770;8.548;2022-09-27T02:21:14;16.07;;;7.23;;
11777;SDS011;5946;51.770;8.548;2022-09-27T02:23:43;18.97;;;7.30;;
11777;SDS011;5946;51.770;8.548;2022-09-27T02:26:16;13.60;;;7.03;;
11777;SDS011;5946;51.770;8.548;2022-09-27T02:28:56;16.07;;;7.10;;
11777;SDS011;5946;51.770;8.548;2022-09-27T02:31:23;12.90;;;7.03;;
11777;SDS011;5946;51.770;8.548;2022-09-27T02:33:51;20.10;;;7.07;;
11777;SDS011;5946;51.770;8.548;2022-09-27T02:36:19;16.07;;;6.90;;
11777;SDS011;5946;51.770;8.548;2022-09-27T02:38:45;17.13;;;7.60;;
11777;SDS011;5946;51.770;8.548;2022-09-27T02:41:15;15.00;;;7.23;;
11777;SDS011;5946;51.770;8.548;2022-09-27T02:43:42;15.70;;;6.67;;
11777;SDS011;5946;51.770;8.548;2022-09-27T02:46:32;14.73;;;7.33;;
11777;SDS011;5946;51.770;8.548;2022-09-27T02:51:29;16.97;;;7.47;;
11777;SDS011;5946;51.770;8.548;2022-09-27T02:56:24;17.30;;;7.47;;
11777;SDS011;5946;51.770;8.548;2022-09-27T02:58:56;18.40;;;7.70;;
11777;SDS011;5946;51.770;8.548;2022-09-27T03:04:16;16.27;;;7.63;;
11777;SDS011;5946;51.770;8.548;2022-09-27T03:06:44;16.37;;;7.23;;
11777;SDS011;5946;51.770;8.548;2022-09-27T03:09:38;15.87;;;7.90;;
11777;SDS011;5946;51.770;8.548;2022-09-27T03:12:00;16.23;;;6.90;;
11777;SDS011;5946;51.770;8.548;2022-09-27T03:14:26;12.97;;;6.63;;
11777;SDS011;5946;51.770;8.548;2022-09-27T03:16:52;15.43;;;6.23;;
11777;SDS011;5946;51.770;8.548;2022-09-27T03:19:18;13.17;;;5.97;;
11777;SDS011;5946;51.770;8.548;2022-09-27T03:21:44;10.23;;;5.27;;
11777;SDS011;5946;51.770;8.548;2022-09-27T03:24:10;9.57;;;4.67;;
11777;SDS011;5946;51.770;8.548;2022-09-27T03:26:35;7.50;;;4.20;;
11777;SDS011;5946;51.770;8.548;2022-09-27T03:29:01;13.23;;;4.80;;
11777;SDS011;5946;51.770;8.548;2022-09-27T03:31:27;9.37;;;4.47;;
11777;SDS011;5946;51.770;8.548;2022-09-27T03:33:54;8.17;;;4.10;;
11777;SDS011;5946;51.770;8.548;2022-09-27T03:36:20;10.93;;;4.50;;
11777;SDS011;5946;51.770;8.548;2022-09-27T03:38:46;13.53;;;4.80;;
11777;SDS011;5946;51.770;8.548;2022-09-27T03:41:12;15.53;;;4.73;;
11777;SDS011;5946;51.770;8.548;2022-09-27T03:43:38;9.27;;;4.47;;
11777;SDS011;5946;51.770;8.548;2022-09-27T03:46:03;12.77;;;5.00;;
11777;SDS011;5946;51.770;8.548;2022-09-27T03:48:29;12.63;;;4.93;;
11777;SDS011;5946;51.770;8.548;2022-09-27T03:50:55;11.57;;;4.87;;
11777;SDS011;5946;51.770;8.548;2022-09-27T03:53:21;9.07;;;4.33;;
11777;SDS011;5946;51.770;8.548;2022-09-27T03:55:48;10.37;;;4.70;;
11777;SDS011;5946;51.770;8.548;2022-09-27T03:58:14;12.10;;;4.90;;
11777;SDS011;5946;51.770;8.548;2022-09-27T04:00:40;10.53;;;4.90;;
11777;SDS011;5946;51.770;8.548;2022-09-27T04:03:07;13.77;;;4.60;;
11777;SDS011;5946;51.770;8.548;2022-09-27T04:05:33;11.03;;;4.63;;
11777;SDS011;5946;51.770;8.548;2022-09-27T04:07:59;9.93;;;4.83;;
11777;SDS011;5946;51.770;8.548;2022-09-27T04:10:25;13.60;;;5.27;;
11777;SDS011;5946;51.770;8.548;2022-09-27T04:12:51;11.63;;;5.17;;
11777;SDS011;5946;51.770;8.548;2022-09-27T04:15:17;10.83;;;4.53;;
11777;SDS011;5946;51.770;8.548;2022-09-27T04:17:43;8.70;;;4.90;;
11777;SDS011;5946;51.770;8.548;2022-09-27T04:20:09;13.73;;;4.47;;
11777;SDS011;5946;51.770;8.548;2022-09-27T04:22:39;10.20;;;5.07;;
11777;SDS011;5946;51.770;8.548;2022-09-27T04:25:06;7.97;;;4.60;;
11777;SDS011;5946;51.770;8.548;2022-09-27T04:27:33;11.07;;;4.97;;
11777;SDS011;5946;51.770;8.548;2022-09-27T04:29:59;9.17;;;4.60;;
11777;SDS011;5946;51.770;8.548;2022-09-27T04:32:25;10.67;;;4.70;;
11777;SDS011;5946;51.770;8.548;2022-09-27T04:34:51;7.80;;;4.53;;
11777;SDS011;5946;51.770;8.548;2022-09-27T04:37:35;8.57;;;4.90;;
11777;SDS011;5946;51.770;8.548;2022-09-27T04:40:02;11.83;;;5.53;;
11777;SDS011;5946;51.770;8.548;2022-09-27T04:42:29;10.70;;;4.70;;
11777;SDS011;5946;51.770;8.548;2022-09-27T04:44:55;7.67;;;4.43;;
11777;SDS011;5946;51.770;8.548;2022-09-27T04:47:21;12.53;;;4.90;;
11777;SDS011;5946;51.770;8.548;2022-09-27T04:49:47;7.97;;;4.53;;
11777;SDS011;5946;51.770;8.548;2022-09-27T04:52:13;10.73;;;4.53;;
11777;SDS011;5946;51.770;8.548;2022-09-27T04:54:40;8.40;;;4.40;;
11777;SDS011;5946;51.770;8.548;2022-09-27T04:57:06;9.30;;;4.20;;
11777;SDS011;5946;51.770;8.548;2022-09-27T04:59:32;9.43;;;3.97;;
11777;SDS011;5946;51.770;8.548;2022-09-27T05:01:58;7.47;;;4.67;;
11777;SDS011;5946;51.770;8.548;2022-09-27T05:04:24;7.90;;;3.80;;
11777;SDS011;5946;51.770;8.548;2022-09-27T05:06:51;14.33;;;4.00;;
11777;SDS011;5946;51.770;8.548;2022-09-27T05:09:17;8.87;;;3.73;;
11777;SDS011;5946;51.770;8.548;2022-09-27T05:11:43;5.63;;;3.53;;
11777;SDS011;5946;51.770;8.548;2022-09-27T05:14:09;12.40;;;4.30;;
11777;SDS011;5946;51.770;8.548;2022-09-27T05:16:35;9.77;;;3.73;;
11777;SDS011;5946;51.770;8.548;2022-09-27T05:19:02;10.10;;;4.30;;
11777;SDS011;5946;51.770;8.548;2022-09-27T05:21:28;7.13;;;4.20;;
11777;SDS011;5946;51.770;8.548;2022-09-27T05:23:55;9.00;;;4.37;;
11777;SDS011;5946;51.770;8.548;2022-09-27T05:26:21;9.70;;;4.33;;
11777;SDS011;5946;51.770;8.548;2022-09-27T05:28:47;11.60;;;4.13;;
11777;SDS011;5946;51.770;8.548;2022-09-27T05:31:13;10.80;;;4.50;;
11777;SDS011;5946;51.770;8.548;2022-09-27T05:33:40;7.73;;;4.63;;
11777;SDS011;5946;51.770;8.548;2022-09-27T05:36:06;9.40;;;4.47;;
11777;SDS011;5946;51.770;8.548;2022-09-27T05:38:33;8.37;;;4.67;;
11777;SDS011;5946;51.770;8.548;2022-09-27T05:41:00;10.93;;;4.83;;
11777;SDS011;5946;51.770;8.548;2022-09-27T05:43:28;10.20;;;4.83;;
11777;SDS011;5946;51.770;8.548;2022-09-27T05:45:55;11.27;;;5.30;;
11777;SDS011;5946;51.770;8.548;2022-09-27T05:48:21;15.27;;;5.63;;
11777;SDS011;5946;51.770;8.548;2022-09-27T05:50:47;12.53;;;5.30;;
11777;SDS011;5946;51.770;8.548;2022-09-27T05:53:13;12.13;;;4.97;;
11777;SDS011;5946;51.770;8.548;2022-09-27T05:55:39;10.40;;;5.37;;
11777;SDS011;5946;51.770;8.548;2022-09-27T05:58:06;13.33;;;5.60;;
11777;SDS011;5946;51.770;8.548;2022-09-27T06:00:32;16.27;;;5.70;;
11777;SDS011;5946;51.770;8.548;2022-09-27T06:02:59;11.93;;;5.80;;
11777;SDS011;5946;51.770;8.548;2022-09-27T06:05:27;16.80;;;6.20;;
11777;SDS011;5946;51.770;8.548;2022-09-27T06:08:00;10.77;;;6.20;;
11777;SDS011;5946;51.770;8.548;2022-09-27T06:10:27;12.93;;;6.30;;
11777;SDS011;5946;51.770;8.548;2022-09-27T06:12:53;18.53;;;6.70;;
11777;SDS011;5946;51.770;8.548;2022-09-27T06:15:23;13.50;;;5.50;;
11777;SDS011;5946;51.770;8.548;2022-09-27T06:17:49;13.83;;;5.90;;
11777;SDS011;5946;51.770;8.548;2022-09-27T06:20:15;11.47;;;5.83;;
11777;SDS011;5946;51.770;8.548;2022-09-27T06:22:42;12.93;;;5.90;;
11777;SDS011;5946;51.770;8.548;2022-09-27T06:25:10;17.17;;;5.63;;
11777;SDS011;5946;51.770;8.548;2022-09-27T06:27:36;14.20;;;5.53;;
11777;SDS011;5946;51.770;8.548;2022-09-27T06:30:03;10.07;;;5.13;;
11777;SDS011;5946;51.770;8.548;2022-09-27T06:32:29;11.43;;;4.83;;
11777;SDS011;5946;51.770;8.548;2022-09-27T06:34:55;11.47;;;6.10;;
11777;SDS011;5946;51.770;8.548;2022-09-27T06:37:25;7.53;;;4.67;;
11777;SDS011;5946;51.770;8.548;2022-09-27T06:39:51;8.00;;;4.00;;
11777;SDS011;5946;51.770;8.548;2022-09-27T06:42:17;10.37;;;4.07;;
11777;SDS011;5946;51.770;8.548;2022-09-27T06:44:43;8.93;;;3.80;;
11777;SDS011;5946;51.770;8.548;2022-09-27T06:47:12;6.50;;;3.50;;
11777;SDS011;5946;51.770;8.548;2022-09-27T06:49:38;8.03;;;3.93;;
11777;SDS011;5946;51.770;8.548;2022-09-27T06:52:04;7.00;;;3.40;;
11777;SDS011;5946;51.770;8.548;2022-09-27T06:54:30;7.30;;;4.07;;
11777;SDS011;5946;51.770;8.548;2022-09-27T06:56:56;7.30;;;3.90;;
11777;SDS011;5946;51.770;8.548;2022-09-27T06:59:22;6.77;;;3.50;;
11777;SDS011;5946;51.770;8.548;2022-09-27T07:02:07;9.60;;;4.53;;
11777;SDS011;5946;51.770;8.548;2022-09-27T07:04:33;11.23;;;4.77;;
11777;SDS011;5946;51.770;8.548;2022-09-27T07:06:59;11.60;;;6.33;;
11777;SDS011;5946;51.770;8.548;2022-09-27T07:09:25;12.50;;;6.00;;
11777;SDS011;5946;51.770;8.548;2022-09-27T07:11:51;10.80;;;6.30;;
11777;SDS011;5946;51.770;8.548;2022-09-27T07:14:19;12.40;;;6.67;;
11777;SDS011;5946;51.770;8.548;2022-09-27T07:16:45;11.53;;;6.80;;
11777;SDS011;5946;51.770;8.548;2022-09-27T07:19:11;9.50;;;6.33;;
11777;SDS011;5946;51.770;8.548;2022-09-27T07:21:38;13.93;;;5.80;;
11777;SDS011;5946;51.770;8.548;2022-09-27T07:24:04;12.20;;;6.07;;
11777;SDS011;5946;51.770;8.548;2022-09-27T07:26:30;11.13;;;5.73;;
11777;SDS011;5946;51.770;8.548;2022-09-27T07:28:56;9.50;;;5.50;;
11777;SDS011;5946;51.770;8.548;2022-09-27T07:31:23;10.37;;;5.17;;
11777;SDS011;5946;51.770;8.548;2022-09-27T07:33:49;11.57;;;5.60;;
11777;SDS011;5946;51.770;8.548;2022-09-27T07:36:16;11.27;;;5.70;;
11777;SDS011;5946;51.770;8.548;2022-09-27T07:38:42;10.90;;;5.73;;
11777;SDS011;5946;51.770;8.548;2022-09-27T07:41:09;12.93;;;6.03;;
11777;SDS011;5946;51.770;8.548;2022-09-27T07:43:37;9.73;;;6.10;;
11777;SDS011;5946;51.770;8.548;2022-09-27T07:46:03;9.10;;;6.67;;
11777;SDS011;5946;51.770;8.548;2022-09-27T07:48:29;17.90;;;7.60;;
11777;SDS011;5946;51.770;8.548;2022-09-27T07:50:55;10.73;;;7.43;;
11777;SDS011;5946;51.770;8.548;2022-09-27T07:53:20;13.57;;;7.43;;
11777;SDS011;5946;51.770;8.548;2022-09-27T07:55:51;14.30;;;7.97;;
11777;SDS011;5946;51.770;8.548;2022-09-27T07:58:17;13.97;;;8.20;;
11777;SDS011;5946;51.770;8.548;2022-09-27T08:00:43;11.50;;;8.63;;
11777;SDS011;5946;51.770;8.548;2022-09-27T08:03:10;16.27;;;9.00;;
11777;SDS011;5946;51.770;8.548;2022-09-27T08:05:39;19.07;;;8.83;;
11777;SDS011;5946;51.770;8.548;2022-09-27T08:08:05;15.50;;;8.73;;
11777;SDS011;5946;51.770;8.548;2022-09-27T08:10:32;13.40;;;8.47;;
11777;SDS011;5946;51.770;8.548;2022-09-27T08:12:58;13.47;;;9.43;;
11777;SDS011;5946;51.770;8.548;2022-09-27T08:15:27;17.00;;;9.60;;
11777;SDS011;5946;51.770;8.548;2022-09-27T08:17:53;15.87;;;11.00;;
11777;SDS011;5946;51.770;8.548;2022-09-27T08:20:19;17.43;;;10.40;;
11777;SDS011;5946;51.770;8.548;2022-09-27T08:22:45;17.27;;;12.63;;
11777;SDS011;5946;51.770;8.548;2022-09-27T08:25:11;21.90;;;13.13;;
11777;SDS011;5946;51.770;8.548;2022-09-27T08:27:38;18.10;;;13.00;;
11777;SDS011;5946;51.770;8.548;2022-09-27T08:30:04;16.97;;;14.30;;
11777;SDS011;5946;51.770;8.548;2022-09-27T08:32:30;24.50;;;16.57;;
11777;SDS011;5946;51.770;8.548;2022-09-27T08:34:56;22.17;;;17.53;;
11777;SDS011;5946;51.770;8.548;2022-09-27T08:37:23;25.37;;;16.33;;
11777;SDS011;5946;51.770;8.548;2022-09-27T08:39:49;18.37;;;13.60;;
11777;SDS011;5946;51.770;8.548;2022-09-27T08:44:57;15.23;;;10.13;;
11777;SDS011;5946;51.770;8.548;2022-09-27T08:47:26;10.70;;;7.63;;
11777;SDS011;5946;51.770;8.548;2022-09-27T08:52:52;13.03;;;5.10;;
11777;SDS011;5946;51.770;8.548;2022-09-27T08:55:21;10.03;;;5.00;;
11777;SDS011;5946;51.770;8.548;2022-09-27T08:57:49;11.40;;;5.53;;
11777;SDS011;5946;51.770;8.548;2022-09-27T09:00:17;9.13;;;6.07;;
11777;SDS011;5946;51.770;8.548;2022-09-27T09:02:43;7.93;;;6.17;;
11777;SDS011;5946;51.770;8.548;2022-09-27T09:05:10;8.67;;;6.17;;
11777;SDS011;5946;51.770;8.548;2022-09-27T09:07:42;11.53;;;6.27;;
11777;SDS011;5946;51.770;8.548;2022-09-27T09:13:55;10.03;;;5.73;;
11777;SDS011;5946;51.770;8.548;2022-09-27T09:23:34;6.73;;;4.60;;
11777;SDS011;5946;51.770;8.548;2022-09-27T09:28:43;9.53;;;5.30;;
11777;SDS011;5946;51.770;8.548;2022-09-27T09:31:30;9.10;;;5.53;;
11777;SDS011;5946;51.770;8.548;2022-09-27T09:36:42;7.97;;;5.93;;
11777;SDS011;5946;51.770;8.548;2022-09-27T09:39:11;10.73;;;6.60;;
11777;SDS011;5946;51.770;8.548;2022-09-27T09:47:03;9.70;;;5.90;;
11777;SDS011;5946;51.770;8.548;2022-09-27T09:49:42;7.60;;;6.80;;
11777;SDS011;5946;51.770;8.548;2022-09-27T09:52:10;9.57;;;7.50;;
11777;SDS011;5946;51.770;8.548;2022-09-27T09:54:39;8.50;;;7.57;;
11777;SDS011;5946;51.770;8.548;2022-09-27T09:59:46;11.17;;;7.83;;
11777;SDS011;5946;51.770;8.548;2022-09-27T10:02:22;11.30;;;7.90;;
11777;SDS011;5946;51.770;8.548;2022-09-27T10:04:51;9.37;;;8.00;;
11777;SDS011;5946;51.770;8.548;2022-09-27T10:07:19;8.20;;;7.27;;
11777;SDS011;5946;51.770;8.548;2022-09-27T10:09:47;8.07;;;7.33;;
11777;SDS011;5946;51.770;8.548;2022-09-27T10:12:13;10.40;;;8.60;;
11777;SDS011;5946;51.770;8.548;2022-09-27T10:14:38;13.10;;;8.90;;
11777;SDS011;5946;51.770;8.548;2022-09-27T10:17:08;13.93;;;10.77;;
11777;SDS011;5946;51.770;8.548;2022-09-27T10:19:36;17.50;;;11.60;;
11777;SDS011;5946;51.770;8.548;2022-09-27T10:24:52;15.47;;;13.60;;
11777;SDS011;5946;51.770;8.548;2022-09-27T10:27:19;17.07;;;13.73;;
11777;SDS011;5946;51.770;8.548;2022-09-27T10:29:45;17.33;;;15.27;;
11777;SDS011;5946;51.770;8.548;2022-09-27T10:32:18;17.23;;;15.43;;
11777;SDS011;5946;51.770;8.548;2022-09-27T10:34:45;19.10;;;15.83;;
11777;SDS011;5946;51.770;8.548;2022-09-27T10:39:37;20.73;;;15.20;;
11777;SDS011;5946;51.770;8.548;2022-09-27T10:42:50;18.50;;;16.00;;
11777;SDS011;5946;51.770;8.548;2022-09-27T10:44:51;18.97;;;15.30;;
11777;SDS011;5946;51.770;8.548;2022-09-27T10:47:19;17.40;;;14.40;;
11777;SDS011;5946;51.770;8.548;2022-09-27T10:49:47;17.67;;;14.33;;
11777;SDS011;5946;51.770;8.548;2022-09-27T10:54:43;15.43;;;13.80;;
11777;SDS011;5946;51.770;8.548;2022-09-27T10:57:18;15.07;;;13.53;;
11777;SDS011;5946;51.770;8.548;2022-09-27T10:59:46;17.00;;;15.20;;
11777;SDS011;5946;51.770;8.548;2022-09-27T11:02:21;17.20;;;15.10;;
11777;SDS011;5946;51.770;8.548;2022-09-27T11:07:33;17.70;;;14.20;;
11777;SDS011;5946;51.770;8.548;2022-09-27T11:10:00;17.33;;;14.33;;
11777;SDS011;5946;51.770;8.548;2022-09-27T11:12:29;15.40;;;13.30;;
11777;SDS011;5946;51.770;8.548;2022-09-27T11:15:02;14.47;;;12.93;;
11777;SDS011;5946;51.770;8.548;2022-09-27T11:17:35;15.90;;;13.60;;
11777;SDS011;5946;51.770;8.548;2022-09-27T11:22:51;13.03;;;11.73;;
11777;SDS011;5946;51.770;8.548;2022-09-27T11:25:27;16.83;;;12.30;;
11777;SDS011;5946;51.770;8.548;2022-09-27T11:30:22;11.63;;;10.43;;
11777;SDS011;5946;51.770;8.548;2022-09-27T11:38:24;13.00;;;11.60;;
11777;SDS011;5946;51.770;8.548;2022-09-27T11:45:54;11.23;;;10.00;;
11777;SDS011;5946;51.770;8.548;2022-09-27T11:50:57;9.77;;;8.67;;
11777;SDS011;5946;51.770;8.548;2022-09-27T11:53:35;10.40;;;8.77;;
11777;SDS011;5946;51.770;8.548;2022-09-27T11:58:53;10.17;;;7.60;;
11777;SDS011;5946;51.770;8.548;2022-09-27T12:01:27;8.07;;;7.23;;
11777;SDS011;5946;51.770;8.548;2022-09-27T12:09:16;9.13;;;6.53;;
11777;SDS011;5946;51.770;8.548;2022-09-27T12:14:21;4.43;;;4.03;;
11777;SDS011;5946;51.770;8.548;2022-09-27T12:16:49;7.67;;;3.80;;
11777;SDS011;5946;51.770;8.548;2022-09-27T12:19:18;5.53;;;4.20;;
11777;SDS011;5946;51.770;8.548;2022-09-27T12:21:47;8.63;;;4.10;;
11777;SDS011;5946;51.770;8.548;2022-09-27T12:24:16;3.83;;;3.33;;
11777;SDS011;5946;51.770;8.548;2022-09-27T12:26:43;3.73;;;3.40;;
11777;SDS011;5946;51.770;8.548;2022-09-27T12:29:14;5.13;;;3.27;;
11777;SDS011;5946;51.770;8.548;2022-09-27T12:31:43;3.70;;;3.40;;
11777;SDS011;5946;51.770;8.548;2022-09-27T12:36:38;4.93;;;4.03;;
11777;SDS011;5946;51.770;8.548;2022-09-27T12:39:14;5.77;;;3.90;;
11777;SDS011;5946;51.770;8.548;2022-09-27T12:41:43;4.20;;;3.80;;
11777;SDS011;5946;51.770;8.548;2022-09-27T12:44:10;9.30;;;4.20;;
11777;SDS011;5946;51.770;8.548;2022-09-27T12:49:22;5.17;;;3.80;;
11777;SDS011;5946;51.770;8.548;2022-09-27T12:51:52;4.00;;;3.60;;
11777;SDS011;5946;51.770;8.548;2022-09-27T12:56:50;5.60;;;3.10;;
11777;SDS011;5946;51.770;8.548;2022-09-27T13:04:27;4.23;;;3.27;;
11777;SDS011;5946;51.770;8.548;2022-09-27T13:07:08;3.50;;;3.17;;
11777;SDS011;5946;51.770;8.548;2022-09-27T13:12:17;3.93;;;3.10;;
11777;SDS011;5946;51.770;8.548;2022-09-27T13:14:53;18.10;;;3.57;;
11777;SDS011;5946;51.770;8.548;2022-09-27T13:19:57;3.60;;;3.30;;
11777;SDS011;5946;51.770;8.548;2022-09-27T13:24:53;3.47;;;2.87;;
11777;SDS011;5946;51.770;8.548;2022-09-27T13:29:48;3.57;;;2.97;;
11777;SDS011;5946;51.770;8.548;2022-09-27T13:32:23;3.70;;;3.03;;
11777;SDS011;5946;51.770;8.548;2022-09-27T13:34:53;4.90;;;4.40;;
11777;SDS011;5946;51.770;8.548;2022-09-27T13:42:45;4.90;;;4.50;;
11777;SDS011;5946;51.770;8.548;2022-09-27T13:47:42;8.63;;;5.80;;
11777;SDS011;5946;51.770;8.548;2022-09-27T13:50:15;8.10;;;6.13;;
11777;SDS011;5946;51.770;8.548;2022-09-27T13:52:42;6.37;;;4.60;;
11777;SDS011;5946;51.770;8.548;2022-09-27T13:57:56;6.17;;;5.00;;
11777;SDS011;5946;51.770;8.548;2022-09-27T14:00:27;5.47;;;4.50;;
11777;SDS011;5946;51.770;8.548;2022-09-27T14:05:27;7.53;;;4.13;;
11777;SDS011;5946;51.770;8.548;2022-09-27T14:07:55;3.33;;;3.00;;
11777;SDS011;5946;51.770;8.548;2022-09-27T14:10:23;3.73;;;3.00;;
11777;SDS011;5946;51.770;8.548;2022-09-27T14:12:51;5.40;;;2.87;;
11777;SDS011;5946;51.770;8.548;2022-09-27T14:15:25;3.80;;;2.83;;
11777;SDS011;5946;51.770;8.548;2022-09-27T14:17:52;3.83;;;3.23;;
11777;SDS011;5946;51.770;8.548;2022-09-27T14:20:40;3.33;;;3.00;;
11777;SDS011;5946;51.770;8.548;2022-09-27T14:23:05;3.47;;;3.17;;
11777;SDS011;5946;51.770;8.548;2022-09-27T14:25:38;5.20;;;3.97;;
11777;SDS011;5946;51.770;8.548;2022-09-27T14:30:44;4.07;;;3.60;;
11777;SDS011;5946;51.770;8.548;2022-09-27T14:33:27;7.83;;;3.80;;
11777;SDS011;5946;51.770;8.548;2022-09-27T14:35:54;3.47;;;3.20;;
11777;SDS011;5946;51.770;8.548;2022-09-27T14:38:39;4.77;;;4.30;;
11777;SDS011;5946;51.770;8.548;2022-09-27T14:41:06;6.60;;;3.50;;
11777;SDS011;5946;51.770;8.548;2022-09-27T14:43:34;10.00;;;4.60;;
11777;SDS011;5946;51.770;8.548;2022-09-27T14:46:01;4.93;;;3.40;;
11777;SDS011;5946;51.770;8.548;2022-09-27T14:48:31;5.17;;;4.40;;
11777;SDS011;5946;51.770;8.548;2022-09-27T14:50:59;6.10;;;3.20;;
11777;SDS011;5946;51.770;8.548;2022-09-27T14:53:28;5.60;;;3.10;;
11777;SDS011;5946;51.770;8.548;2022-09-27T14:55:54;3.83;;;2.90;;
11777;SDS011;5946;51.770;8.548;2022-09-27T14:58:21;5.27;;;3.20;;
11777;SDS011;5946;51.770;8.548;2022-09-27T15:00:47;2.33;;;2.10;;
11777;SDS011;5946;51.770;8.548;2022-09-27T15:03:18;4.37;;;3.23;;
11777;SDS011;5946;51.770;8.548;2022-09-27T15:05:45;2.70;;;2.50;;
11777;SDS011;5946;51.770;8.548;2022-09-27T15:08:11;9.10;;;2.53;;
11777;SDS011;5946;51.770;8.548;2022-09-27T15:10:39;2.87;;;2.20;;
11777;SDS011;5946;51.770;8.548;2022-09-27T15:13:05;4.80;;;3.63;;
11777;SDS011;5946;51.770;8.548;2022-09-27T15:15:32;3.27;;;2.70;;
11777;SDS011;5946;51.770;8.548;2022-09-27T15:17:59;3.10;;;2.00;;
11777;SDS011;5946;51.770;8.548;2022-09-27T15:20:27;2.00;;;1.80;;
11777;SDS011;5946;51.770;8.548;2022-09-27T15:22:55;5.77;;;3.53;;
11777;SDS011;5946;51.770;8.548;2022-09-27T15:25:23;2.83;;;1.80;;
11777;SDS011;5946;51.770;8.548;2022-09-27T15:27:56;2.40;;;2.20;;
11777;SDS011;5946;51.770;8.548;2022-09-27T15:30:38;2.03;;;1.83;;
11777;SDS011;5946;51.770;8.548;2022-09-27T15:33:06;2.10;;;1.50;;
11777;SDS011;5946;51.770;8.548;2022-09-27T15:35:33;2.60;;;2.30;;
11777;SDS011;5946;51.770;8.548;2022-09-27T15:38:09;2.17;;;1.93;;
11777;SDS011;5946;51.770;8.548;2022-09-27T15:43:10;4.23;;;2.00;;
11777;SDS011;5946;51.770;8.548;2022-09-27T15:45:47;3.13;;;1.70;;
11777;SDS011;5946;51.770;8.548;2022-09-27T15:48:14;3.10;;;1.90;;
11777;SDS011;5946;51.770;8.548;2022-09-27T15:50:41;3.10;;;1.63;;
11777;SDS011;5946;51.770;8.548;2022-09-27T15:53:08;2.70;;;1.93;;
11777;SDS011;5946;51.770;8.548;2022-09-27T15:55:43;4.63;;;2.10;;
11777;SDS011;5946;51.770;8.548;2022-09-27T15:58:11;3.43;;;1.80;;
11777;SDS011;5946;51.770;8.548;2022-09-27T16:00:49;3.27;;;1.90;;
11777;SDS011;5946;51.770;8.548;2022-09-27T16:03:15;3.83;;;2.63;;
11777;SDS011;5946;51.770;8.548;2022-09-27T16:05:41;4.03;;;3.30;;
11777;SDS011;5946;51.770;8.548;2022-09-27T16:08:08;5.63;;;3.13;;
11777;SDS011;5946;51.770;8.548;2022-09-27T16:10:35;3.47;;;3.13;;
11777;SDS011;5946;51.770;8.548;2022-09-27T16:13:02;10.23;;;4.97;;
11777;SDS011;5946;51.770;8.548;2022-09-27T16:15:28;5.33;;;4.83;;
11777;SDS011;5946;51.770;8.548;2022-09-27T16:17:55;4.47;;;4.03;;
11777;SDS011;5946;51.770;8.548;2022-09-27T16:20:22;5.13;;;3.97;;
11777;SDS011;5946;51.770;8.548;2022-09-27T16:22:49;5.23;;;4.50;;
11777;SDS011;5946;51.770;8.548;2022-09-27T16:25:15;6.23;;;4.60;;
11777;SDS011;5946;51.770;8.548;2022-09-27T16:27:41;4.77;;;4.23;;
11777;SDS011;5946;51.770;8.548;2022-09-27T16:30:07;6.80;;;5.00;;
11777;SDS011;5946;51.770;8.548;2022-09-27T16:32:38;6.73;;;5.60;;
11777;SDS011;5946;51.770;8.548;2022-09-27T16:35:05;7.17;;;5.17;;
11777;SDS011;5946;51.770;8.548;2022-09-27T16:37:32;5.80;;;5.20;;
11777;SDS011;5946;51.770;8.548;2022-09-27T16:39:58;5.33;;;4.80;;
11777;SDS011;5946;51.770;8.548;2022-09-27T16:42:24;5.60;;;5.10;;
11777;SDS011;5946;51.770;8.548;2022-09-27T16:44:51;5.53;;;5.03;;
11777;SDS011;5946;51.770;8.548;2022-09-27T16:47:17;7.43;;;6.33;;
11777;SDS011;5946;51.770;8.548;2022-09-27T16:49:44;7.27;;;5.70;;
11777;SDS011;5946;51.770;8.548;2022-09-27T16:52:29;5.20;;;4.70;;
11777;SDS011;5946;51.770;8.548;2022-09-27T16:54:57;7.23;;;5.73;;
11777;SDS011;5946;51.770;8.548;2022-09-27T16:57:24;6.20;;;5.60;;
11777;SDS011;5946;51.770;8.548;2022-09-27T16:59:52;5.87;;;5.37;;
11777;SDS011;5946;51.770;8.548;2022-09-27T17:02:20;6.40;;;5.80;;
11777;SDS011;5946;51.770;8.548;2022-09-27T17:04:46;6.33;;;5.30;;
11777;SDS011;5946;51.770;8.548;2022-09-27T17:07:12;5.47;;;4.97;;
11777;SDS011;5946;51.770;8.548;2022-09-27T17:09:38;6.03;;;5.30;;
11777;SDS011;5946;51.770;8.548;2022-09-27T17:12:04;5.70;;;5.13;;
11777;SDS011;5946;51.770;8.548;2022-09-27T17:14:30;5.50;;;4.77;;
11777;SDS011;5946;51.770;8.548;2022-09-27T17:16:56;5.27;;;4.77;;
11777;SDS011;5946;51.770;8.548;2022-09-27T17:19:22;5.67;;;4.70;;